Weather at Camp Falaj Hazzaa Airfield

Public forecast

Using degrees Celsius for public forecast. Weather courtesy of forecast.io.

Closest aviation weather report (METAR) to Camp Falaj Hazzaa Airfield

Closest report is Al Ain International Airport, 7.3 nm (13.5 km) NW.

2024/06/17 03:00 (retrieved 19 minutes ago)

OMAL 170300Z 17006KT CAVOK 35/18 Q1003 NOSIG

Closest aviation forecast (TAF) to Camp Falaj Hazzaa Airfield

Forecast is more than 6 hours old.

Closest forecast is Bahrain International Airport, 302.7 nm (560.6 km) WNW.

2024/06/16 18:00 (retrieved 9 hours ago)

TAF OBBI 161700Z 1618/1800 06007KT CAVOK BECMG 1700/1702 32010KT BECMG 1715/1717 VRB05KT